createdAt,value
2023-04-11T00:01:00.763Z,100816.84
2023-04-11T00:03:29.168Z,100826.81
2023-04-11T00:05:57.493Z,100828.75
2023-04-11T00:08:25.756Z,100829.13
2023-04-11T00:10:55.505Z,100830.25
2023-04-11T00:13:24.453Z,100824.34
2023-04-11T00:15:55.789Z,100834.84
2023-04-11T00:18:25.970Z,100835.78
2023-04-11T00:20:54.215Z,100838.84
2023-04-11T00:23:22.416Z,100833.09
2023-04-11T00:25:50.954Z,100833.09
2023-04-11T00:28:20.624Z,100844.41
2023-04-11T00:30:48.705Z,100847.31
2023-04-11T00:33:16.878Z,100831.72
2023-04-11T00:35:45.799Z,100834.19
2023-04-11T00:38:13.977Z,100832.53
2023-04-11T00:40:42.095Z,100835.28
2023-04-11T00:43:10.340Z,100836.44
2023-04-11T00:45:40.067Z,100835.72
2023-04-11T00:48:08.502Z,100839.06
2023-04-11T00:50:41.201Z,100845.66
2023-04-11T00:53:10.442Z,100838.91
2023-04-11T00:55:38.482Z,100830.22
2023-04-11T00:58:08.507Z,100839.72
2023-04-11T01:00:38.886Z,100839.72
2023-04-11T01:03:08.527Z,100840.53
2023-04-11T01:05:36.978Z,100836.16
2023-04-11T01:08:05.762Z,100839.06
2023-04-11T01:10:34.550Z,100836.28
2023-04-11T01:13:02.847Z,100838.34
2023-04-11T01:15:31.481Z,100828.72
2023-04-11T01:18:02.501Z,100838.34
2023-04-11T01:20:33.385Z,100837.84
2023-04-11T01:23:03.799Z,100827.78
2023-04-11T01:25:33.429Z,100831.66
2023-04-11T01:28:05.118Z,100833.75
2023-04-11T01:30:33.409Z,100827.97
2023-04-11T01:33:01.512Z,100821.63
2023-04-11T01:35:29.817Z,100819.97
2023-04-11T01:37:57.981Z,100825.06
2023-04-11T01:40:26.540Z,100826.84
2023-04-11T01:42:56.582Z,100831.28
2023-04-11T01:45:26.547Z,100828.66
2023-04-11T01:47:55.152Z,100818.28
2023-04-11T01:50:23.343Z,100833.06
2023-04-11T01:52:52.197Z,100829.09
2023-04-11T01:55:23.961Z,100823.31
2023-04-11T01:57:52.146Z,100833.13
2023-04-11T02:00:22.652Z,100836.25
2023-04-11T02:02:51.084Z,100831.59
2023-04-11T02:05:20.652Z,100826.34
2023-04-11T02:07:48.856Z,100830.34
2023-04-11T02:10:16.917Z,100824.56
2023-04-11T02:12:45.216Z,100821.25
2023-04-11T02:15:13.306Z,100821.66
2023-04-11T02:17:45.420Z,100819.84
2023-04-11T02:20:14.650Z,100823.31
2023-04-11T02:22:43.033Z,100819.69
2023-04-11T02:25:11.380Z,100814.63
2023-04-11T02:27:39.554Z,100825.09
2023-04-11T02:30:08.849Z,100822.47
2023-04-11T02:32:38.378Z,100831.31
2023-04-11T02:35:08.927Z,100826.06
2023-04-11T02:37:37.526Z,100830.50
2023-04-11T02:40:06.575Z,100829.13
2023-04-11T02:42:34.941Z,100826.19
2023-04-11T02:45:03.976Z,100821.25
2023-04-11T02:47:32.215Z,100812.97
2023-04-11T02:50:02.297Z,100800.69
2023-04-11T02:52:33.758Z,100819.56
2023-04-11T02:55:01.787Z,100816.41
2023-04-11T02:57:29.921Z,100813.78
2023-04-11T02:59:58.003Z,100816.41
2023-04-11T03:02:26.253Z,100814.47
2023-04-11T03:04:56.470Z,100806.47
2023-04-11T03:07:25.113Z,100805.34
2023-04-11T03:09:54.681Z,100798.31
2023-04-11T03:12:22.988Z,100800.09
2023-04-11T03:14:51.235Z,100803.69
2023-04-11T03:17:19.458Z,100803.97
2023-04-11T03:19:47.774Z,100806.59
2023-04-11T03:22:16.017Z,100805.78
2023-04-11T03:24:44.219Z,100796.28
2023-04-11T03:27:13.642Z,100781.66
2023-04-11T03:29:41.688Z,100774.75
2023-04-11T03:32:09.883Z,100779.03
2023-04-11T03:34:37.989Z,100772.13
2023-04-11T03:37:06.310Z,100770.94
2023-04-11T03:39:37.898Z,100770.94
2023-04-11T03:42:06.182Z,100766.78
2023-04-11T03:44:37.083Z,100762.41
2023-04-11T03:47:08.054Z,100763.22
2023-04-11T03:49:36.384Z,100760.44
2023-04-11T03:52:05.420Z,100764.88
2023-04-11T03:54:33.625Z,100761.69
2023-04-11T03:57:01.925Z,100761.16
2023-04-11T03:59:30.526Z,100766.41
2023-04-11T04:02:00.236Z,100751.66
2023-04-11T04:04:29.064Z,100746.13
2023-04-11T04:06:57.199Z,100731.38
2023-04-11T04:09:25.568Z,100739.91
2023-04-11T04:11:53.657Z,100738.41
2023-04-11T04:14:21.696Z,100741.16
2023-04-11T04:16:50.025Z,100740.50
2023-04-11T04:19:19.547Z,100740.13
2023-04-11T04:21:47.825Z,100740.78
2023-04-11T04:24:16.001Z,100745.34
2023-04-11T04:26:44.141Z,100740.13
2023-04-11T04:29:12.817Z,100726.88
2023-04-11T04:31:41.646Z,100726.72
2023-04-11T04:34:11.018Z,100728.81
2023-04-11T04:36:47.992Z,100712.94
2023-04-11T04:39:19.806Z,100717.47
2023-04-11T04:41:49.428Z,100722.72
2023-04-11T04:44:18.513Z,100713.22
2023-04-11T04:46:46.557Z,100716.53
2023-04-11T04:49:14.686Z,100717.47
2023-04-11T04:51:44.284Z,100704.69
2023-04-11T04:54:12.512Z,100712.41
2023-04-11T04:56:41.592Z,100706.34
2023-04-11T04:59:14.740Z,100699.16
2023-04-11T05:01:43.127Z,100696.53
2023-04-11T05:04:12.023Z,100696.53
2023-04-11T05:06:40.412Z,100687.41
2023-04-11T05:09:10.021Z,100693.63
2023-04-11T05:11:38.267Z,100684.13
2023-04-11T05:14:06.717Z,100691.00
2023-04-11T05:16:34.927Z,100684.78
2023-04-11T05:19:02.953Z,100681.50
2023-04-11T05:21:31.074Z,100690.19
2023-04-11T05:23:59.242Z,100702.31
2023-04-11T05:26:28.668Z,100699.84
2023-04-11T05:28:56.954Z,100696.69
2023-04-11T05:31:25.874Z,100708.97
2023-04-11T05:33:54.491Z,100707.31
2023-04-11T05:36:22.794Z,100712.13
2023-04-11T05:38:51.222Z,100706.72
2023-04-11T05:41:21.290Z,100720.22
2023-04-11T05:43:51.012Z,100721.84
2023-04-11T05:46:19.270Z,100717.59
2023-04-11T05:48:47.554Z,100714.16
2023-04-11T05:51:15.770Z,100705.31
2023-04-11T05:53:44.111Z,100710.94
2023-04-11T05:56:13.050Z,100707.06
2023-04-11T05:58:43.505Z,100705.78
2023-04-11T06:01:18.803Z,100704.69
2023-04-11T06:03:47.495Z,100706.34
2023-04-11T06:06:16.085Z,100705.34
2023-04-11T06:08:44.534Z,100711.41
2023-04-11T06:11:12.612Z,100710.00
2023-04-11T06:13:40.713Z,100705.44
2023-04-11T06:16:09.747Z,100706.13
2023-04-11T06:18:39.292Z,100698.63
2023-04-11T06:21:07.736Z,100690.78
2023-04-11T06:23:35.875Z,100687.31
2023-04-11T06:26:04.025Z,100677.22
2023-04-11T06:28:32.163Z,100684.78
2023-04-11T06:31:00.428Z,100677.31
2023-04-11T06:33:28.678Z,100674.38
2023-04-11T06:35:58.349Z,100668.38
2023-04-11T06:38:26.544Z,100670.06
2023-04-11T06:40:56.346Z,100673.19
2023-04-11T06:43:24.533Z,100675.88
2023-04-11T06:45:52.954Z,100670.72
2023-04-11T06:48:21.301Z,100661.09
2023-04-11T06:50:49.780Z,100675.19
2023-04-11T06:53:19.375Z,100670.97
2023-04-11T06:55:49.965Z,100672.31
2023-04-11T06:58:18.375Z,100665.09
2023-04-11T07:00:48.166Z,100662.19
2023-04-11T07:03:16.480Z,100657.31
2023-04-11T07:05:44.787Z,100665.84
2023-04-11T07:08:12.889Z,100660.94
2023-04-11T07:10:42.385Z,100658.38
2023-04-11T07:13:10.688Z,100655.47
2023-04-11T07:15:38.802Z,100661.25
2023-04-11T07:18:07.065Z,100655.53
2023-04-11T07:20:36.180Z,100652.28
2023-04-11T07:23:04.594Z,100648.38
2023-04-11T07:25:33.819Z,100640.19
2023-04-11T07:28:10.953Z,100633.03
2023-04-11T07:30:39.127Z,100630.59
2023-04-11T07:33:07.202Z,100618.47
2023-04-11T07:35:35.814Z,100614.69
2023-04-11T07:38:04.408Z,100611.13
2023-04-11T07:40:33.346Z,100603.91
2023-04-11T07:43:01.924Z,100596.66
2023-04-11T07:45:31.711Z,100597.84
2023-04-11T07:47:59.906Z,100597.03
2023-04-11T07:50:28.152Z,100598.19
2023-04-11T07:52:56.916Z,100596.72
2023-04-11T07:55:25.090Z,100591.78
2023-04-11T07:57:53.268Z,100586.88
2023-04-11T08:00:22.734Z,100573.06
2023-04-11T08:02:53.281Z,100570.09
2023-04-11T08:05:21.691Z,100564.34
2023-04-11T08:07:50.000Z,100565.13
2023-04-11T08:10:18.260Z,100564.50
2023-04-11T08:12:46.525Z,100558.22
2023-04-11T08:15:15.085Z,100562.81
2023-04-11T08:17:43.872Z,100552.28
2023-04-11T08:20:14.230Z,100551.47
2023-04-11T08:22:44.867Z,100546.03
2023-04-11T08:25:13.962Z,100529.44
2023-04-11T08:27:42.689Z,100529.78
2023-04-11T08:30:11.211Z,100525.66
2023-04-11T08:33:23.976Z,100527.97
2023-04-11T08:35:53.546Z,100525.47
2023-04-11T08:38:22.099Z,100517.91
2023-04-11T08:40:50.229Z,100510.00
2023-04-11T08:43:18.468Z,100516.75
2023-04-11T08:45:46.678Z,100501.28
2023-04-11T08:48:14.896Z,100489.75
2023-04-11T08:50:43.425Z,100489.09
2023-04-11T08:53:13.402Z,100497.00
2023-04-11T08:55:48.019Z,100482.22
2023-04-11T08:58:16.302Z,100471.84
2023-04-11T09:00:44.442Z,100476.78
2023-04-11T09:03:13.937Z,100469.56
2023-04-11T09:05:44.545Z,100459.34
2023-04-11T09:08:15.282Z,100453.59
2023-04-11T09:10:46.435Z,100448.50
2023-04-11T09:13:22.561Z,100435.16
2023-04-11T09:16:05.872Z,100414.09
2023-04-11T09:18:35.178Z,100403.41
2023-04-11T09:21:06.116Z,100403.56
2023-04-11T09:23:35.994Z,100402.47
2023-04-11T09:26:06.247Z,100400.34
2023-04-11T09:28:42.807Z,100391.63
2023-04-11T09:31:13.222Z,100389.63
2023-04-11T09:33:54.007Z,100385.50
2023-04-11T09:36:23.922Z,100387.63
2023-04-11T09:38:54.149Z,100364.66
2023-04-11T09:41:31.460Z,100362.50
2023-04-11T09:44:00.153Z,100351.66
2023-04-11T09:46:28.505Z,100343.41
2023-04-11T09:48:57.226Z,100330.25
2023-04-11T09:53:59.014Z,100313.44
2023-04-11T09:56:27.909Z,100296.78
2023-04-11T09:58:57.377Z,100296.88
2023-04-11T10:01:26.483Z,100282.75
2023-04-11T10:03:54.955Z,100273.84
2023-04-11T10:06:33.748Z,100259.50
2023-04-11T10:09:18.351Z,100236.28
2023-04-11T10:11:47.099Z,100219.47
2023-04-11T10:14:43.558Z,100211.69
2023-04-11T10:17:13.910Z,100203.81
2023-04-11T10:19:42.997Z,100192.19
2023-04-11T10:22:11.343Z,100181.13
2023-04-11T10:24:40.862Z,100175.56
2023-04-11T10:27:08.955Z,100154.72
2023-04-11T10:29:53.717Z,100158.28
2023-04-11T10:32:23.773Z,100145.38
2023-04-11T10:35:29.693Z,100136.91
2023-04-11T10:37:57.924Z,100119.91
2023-04-11T10:40:27.492Z,100109.94
2023-04-11T10:42:57.493Z,100109.72
2023-04-11T10:45:27.494Z,100114.75
2023-04-11T10:48:03.985Z,100112.41
2023-04-11T10:50:42.186Z,100103.41
2023-04-11T10:53:14.370Z,100101.34
2023-04-11T10:55:48.795Z,100093.72
2023-04-11T10:58:19.873Z,100084.59
2023-04-11T11:01:26.191Z,100078.91
2023-04-11T11:04:02.004Z,100054.56
2023-04-11T11:06:31.175Z,100042.03
2023-04-11T11:09:00.230Z,100027.84
2023-04-11T11:11:29.791Z,100017.78
2023-04-11T11:14:00.275Z,100005.66
2023-04-11T11:16:28.559Z,100002.03
2023-04-11T11:18:59.289Z,99995.59
2023-04-11T11:21:28.998Z,99979.38
2023-04-11T11:24:01.598Z,99973.28
2023-04-11T11:26:42.583Z,99967.66
2023-04-11T11:29:12.361Z,99954.28
2023-04-11T11:31:42.136Z,99947.03
2023-04-11T11:34:22.989Z,99931.22
2023-04-11T11:36:52.888Z,99925.31
2023-04-11T11:39:22.829Z,99916.22
2023-04-11T11:41:53.697Z,99897.22
2023-04-11T11:44:25.675Z,99885.91
2023-04-11T11:47:03.360Z,99881.88
2023-04-11T11:49:45.661Z,99864.03
2023-04-11T11:52:14.122Z,99858.44
2023-04-11T11:54:46.037Z,99841.22
2023-04-11T11:57:22.955Z,99834.56
2023-04-11T11:59:54.991Z,99817.75
2023-04-11T12:02:24.199Z,99812.28
2023-04-11T12:04:57.934Z,99798.09
2023-04-11T12:07:26.813Z,99787.97
2023-04-11T12:09:59.033Z,99778.03
2023-04-11T12:12:36.181Z,99768.09
2023-04-11T12:15:04.842Z,99759.81
2023-04-11T12:17:37.802Z,99752.47
2023-04-11T12:20:08.107Z,99739.88
2023-04-11T12:22:36.849Z,99737.69
2023-04-11T12:25:09.093Z,99727.72
2023-04-11T12:27:40.048Z,99719.81
2023-04-11T12:30:09.878Z,99710.50
2023-04-11T12:32:38.912Z,99698.72
2023-04-11T12:35:08.318Z,99686.34
2023-04-11T12:37:36.439Z,99681.72
2023-04-11T12:40:09.477Z,99661.22
2023-04-11T12:42:49.559Z,99653.72
2023-04-11T12:45:24.812Z,99640.72
2023-04-11T12:47:53.333Z,99629.16
2023-04-11T12:50:23.373Z,99622.03
2023-04-11T12:52:51.747Z,99616.38
2023-04-11T12:55:20.115Z,99589.59
2023-04-11T12:57:49.744Z,99580.66
2023-04-11T13:00:18.856Z,99565.88
2023-04-11T13:02:47.594Z,99563.63
2023-04-11T13:05:16.771Z,99565.22
2023-04-11T13:07:46.731Z,99550.66
2023-04-11T13:10:16.948Z,99534.81
2023-04-11T13:12:46.574Z,99527.53
2023-04-11T13:15:17.578Z,99517.16
2023-04-11T13:17:45.908Z,99502.78
2023-04-11T13:20:14.476Z,99486.34
2023-04-11T13:22:43.936Z,99476.00
2023-04-11T13:25:13.300Z,99472.75
2023-04-11T13:27:42.475Z,99465.03
2023-04-11T13:30:11.951Z,99451.44
2023-04-11T13:32:41.576Z,99442.31
2023-04-11T13:35:16.326Z,99438.28
2023-04-11T13:37:44.497Z,99409.72
2023-04-11T13:40:13.521Z,99398.75
2023-04-11T13:42:42.198Z,99377.88
2023-04-11T13:45:11.118Z,99378.06
2023-04-11T13:47:39.458Z,99372.59
2023-04-11T13:50:10.443Z,99365.09
2023-04-11T13:52:38.735Z,99340.97
2023-04-11T13:55:07.835Z,99338.50
2023-04-11T13:57:36.205Z,99328.56
2023-04-11T14:00:11.633Z,99311.94
2023-04-11T14:02:41.243Z,99288.66
2023-04-11T14:05:13.180Z,99285.41
2023-04-11T14:07:41.526Z,99253.38
2023-04-11T14:10:10.528Z,99241.22
2023-04-11T14:12:39.248Z,99223.56
2023-04-11T14:15:09.194Z,99222.16
2023-04-11T14:17:37.408Z,99222.16
2023-04-11T14:20:07.963Z,99214.06
2023-04-11T14:22:37.641Z,99196.22
2023-04-11T14:25:06.997Z,99181.00
2023-04-11T14:27:35.218Z,99176.78
2023-04-11T14:30:03.622Z,99164.22
2023-04-11T14:32:31.821Z,99160.19
2023-04-11T14:35:02.016Z,99157.34
2023-04-11T14:37:30.516Z,99130.59
2023-04-11T14:39:59.945Z,99129.78
2023-04-11T14:42:28.350Z,99112.19
2023-04-11T14:44:56.629Z,99105.09
2023-04-11T14:47:24.871Z,99088.66
2023-04-11T14:49:53.099Z,99080.38
2023-04-11T14:52:21.722Z,99065.75
2023-04-11T14:54:50.047Z,99051.56
2023-04-11T14:57:19.701Z,99044.84
2023-04-11T14:59:48.624Z,99028.81
2023-04-11T15:02:16.985Z,99020.28
2023-04-11T15:04:45.402Z,99001.25
2023-04-11T15:07:13.522Z,98991.53
2023-04-11T15:09:42.138Z,98991.94
2023-04-11T15:12:10.364Z,98967.66
2023-04-11T15:14:39.842Z,98959.78
2023-04-11T15:17:08.019Z,98958.16
2023-04-11T15:19:36.497Z,98951.88
2023-04-11T15:22:04.725Z,98929.19
2023-04-11T15:24:32.817Z,98918.06
2023-04-11T15:27:02.216Z,98903.28
2023-04-11T15:29:30.848Z,98902.09
2023-04-11T15:32:03.449Z,98885.09
2023-04-11T15:34:31.601Z,98878.44
2023-04-11T15:36:59.801Z,98868.88
2023-04-11T15:39:28.270Z,98859.78
2023-04-11T15:41:56.615Z,98842.22
2023-04-11T15:44:24.760Z,98830.03
2023-04-11T15:46:53.009Z,98828.00
2023-04-11T15:49:22.677Z,98808.97
2023-04-11T15:51:50.720Z,98798.88
2023-04-11T15:54:18.851Z,98788.94
2023-04-11T15:56:47.122Z,98776.78
2023-04-11T15:59:16.143Z,98771.53
2023-04-11T16:01:44.845Z,98752.06
2023-04-11T16:04:13.362Z,98742.56
2023-04-11T16:06:42.946Z,98738.09
2023-04-11T16:09:11.286Z,98722.72
2023-04-11T16:11:40.162Z,98711.97
2023-04-11T16:14:08.896Z,98697.41
2023-04-11T16:16:37.168Z,98688.28
2023-04-11T16:19:05.428Z,98671.69
2023-04-11T16:21:33.660Z,98677.28
2023-04-11T16:24:03.074Z,98666.41
2023-04-11T16:26:31.386Z,98658.28
2023-04-11T16:28:59.672Z,98641.06
2023-04-11T16:31:27.822Z,98636.63
2023-04-11T16:33:56.390Z,98631.16
2023-04-11T16:36:24.904Z,98612.72
2023-04-11T16:38:53.256Z,98601.16
2023-04-11T16:41:22.992Z,98593.25
2023-04-11T16:43:51.144Z,98574.03
2023-04-11T16:46:19.494Z,98572.84
2023-04-11T16:48:47.710Z,98562.31
2023-04-11T16:51:18.404Z,98550.19
2023-04-11T16:53:47.529Z,98540.69
2023-04-11T16:56:16.840Z,98533.78
2023-04-11T16:58:46.392Z,98538.03
2023-04-11T17:01:14.728Z,98529.69
2023-04-11T17:03:44.858Z,98528.88
2023-04-11T17:06:14.618Z,98528.09
2023-04-11T17:08:43.628Z,98511.72
2023-04-11T17:11:12.363Z,98545.81
2023-04-11T17:13:41.621Z,98556.63
2023-04-11T17:16:11.204Z,98557.03
2023-04-11T17:18:39.566Z,98538.69
2023-04-11T17:21:08.306Z,98546.88
2023-04-11T17:23:42.934Z,98544.19
2023-04-11T17:26:11.931Z,98551.66
2023-04-11T17:28:40.969Z,98517.34
2023-04-11T17:31:17.592Z,98522.25
2023-04-11T17:33:46.096Z,98542.91
2023-04-11T17:36:14.466Z,98527.84
2023-04-11T17:38:43.509Z,98534.97
2023-04-11T17:41:14.949Z,98525.09
2023-04-11T17:43:43.897Z,98547.19
2023-04-11T17:46:14.009Z,98539.34
2023-04-11T17:48:42.349Z,98558.91
2023-04-11T17:51:10.646Z,98561.34
2023-04-11T17:53:38.895Z,98560.34
2023-04-11T17:56:07.843Z,98563.19
2023-04-11T17:58:36.242Z,98551.66
2023-04-11T18:01:05.151Z,98557.53
2023-04-11T18:03:35.564Z,98544.63
2023-04-11T18:06:04.172Z,98558.16
2023-04-11T18:08:49.171Z,98557.72
2023-04-11T18:11:19.435Z,98558.16
2023-04-11T18:13:50.034Z,98542.38
2023-04-11T18:16:19.072Z,98542.59
2023-04-11T18:18:48.896Z,98530.09
2023-04-11T18:21:17.656Z,98540.41
2023-04-11T18:23:46.091Z,98527.06
2023-04-11T18:26:14.223Z,98540.59
2023-04-11T18:28:42.327Z,98534.53
2023-04-11T18:31:11.201Z,98554.09
2023-04-11T18:33:42.436Z,98554.53
2023-04-11T18:36:12.827Z,98575.75
2023-04-11T18:38:41.282Z,98590.06
2023-04-11T18:41:09.806Z,98604.19
2023-04-11T18:43:38.960Z,98620.13
2023-04-11T18:46:07.850Z,98627.78
2023-04-11T18:48:36.602Z,98642.94
2023-04-11T18:51:05.286Z,98643.34
2023-04-11T18:53:36.744Z,98650.38
2023-04-11T18:56:05.237Z,98662.53
2023-04-11T18:58:39.627Z,98659.28
2023-04-11T19:01:15.500Z,98664.72
2023-04-11T19:03:44.155Z,98674.81
2023-04-11T19:06:13.118Z,98670.78
2023-04-11T19:08:42.811Z,98681.88
2023-04-11T19:11:11.290Z,98697.63
2023-04-11T19:13:39.517Z,98689.75
2023-04-11T19:16:08.156Z,98702.66
2023-04-11T19:18:36.305Z,98708.09
2023-04-11T19:21:04.688Z,98725.63
2023-04-11T19:23:33.049Z,98729.28
2023-04-11T19:26:02.880Z,98755.28
2023-04-11T19:28:31.085Z,98734.53
2023-04-11T19:30:59.165Z,98757.31
2023-04-11T19:33:27.328Z,98745.81
2023-04-11T19:35:55.563Z,98767.19
2023-04-11T19:38:23.759Z,98764.72
2023-04-11T19:40:52.088Z,98771.41
2023-04-11T19:43:22.151Z,98778.63
2023-04-11T19:45:50.441Z,98780.81
2023-04-11T19:48:18.533Z,98792.31
2023-04-11T19:50:46.756Z,98794.31
2023-04-11T19:53:15.065Z,98805.56
2023-04-11T19:55:45.163Z,98806.59
2023-04-11T19:58:13.638Z,98812.44
2023-04-11T20:00:43.209Z,98813.44
2023-04-11T20:03:14.587Z,98808.56
2023-04-11T20:05:43.245Z,98821.41
2023-04-11T20:08:11.569Z,98822.41
2023-04-11T20:10:40.418Z,98833.88
2023-04-11T20:13:08.622Z,98835.69
2023-04-11T20:15:36.854Z,98849.97
2023-04-11T20:18:07.139Z,98845.53
2023-04-11T20:20:36.944Z,98875.56
2023-04-11T20:23:06.465Z,98860.44
2023-04-11T20:25:35.005Z,98849.75
2023-04-11T20:28:03.670Z,98867.13
2023-04-11T20:30:32.596Z,98874.56
2023-04-11T20:33:01.787Z,98875.81
2023-04-11T20:35:31.519Z,98876.63
2023-04-11T20:37:59.849Z,98890.28
2023-04-11T20:40:28.078Z,98880.63
2023-04-11T20:42:57.417Z,98895.94
2023-04-11T20:45:27.872Z,98903.97
2023-04-11T20:47:57.838Z,98902.31
2023-04-11T20:50:25.993Z,98912.63
2023-04-11T20:52:55.505Z,98914.28
2023-04-11T20:55:25.318Z,98909.78
2023-04-11T20:57:53.605Z,98926.13
2023-04-11T21:00:22.109Z,98930.94
2023-04-11T21:02:51.663Z,98931.69
2023-04-11T21:05:22.117Z,98931.69
2023-04-11T21:07:50.273Z,98940.91
2023-04-11T21:10:20.989Z,98932.44
2023-04-11T21:12:51.857Z,98942.09
2023-04-11T21:15:20.663Z,98949.91
2023-04-11T21:17:49.010Z,98950.03
2023-04-11T21:20:20.665Z,98956.81
2023-04-11T21:22:50.907Z,98981.94
2023-04-11T21:25:20.927Z,98974.66
2023-04-11T21:27:49.929Z,98982.91
2023-04-11T21:30:19.564Z,98994.59
2023-04-11T21:32:47.907Z,98999.00
2023-04-11T21:35:16.291Z,98991.53
2023-04-11T21:37:45.466Z,98995.69
2023-04-11T21:40:14.703Z,99014.56
2023-04-11T21:42:44.149Z,99016.94
2023-04-11T21:45:12.404Z,99021.81
2023-04-11T21:47:40.624Z,99014.56
2023-04-11T21:50:10.153Z,99021.53
2023-04-11T21:52:38.320Z,99025.88
2023-04-11T21:55:08.976Z,99022.34
2023-04-11T21:57:37.435Z,99028.13
2023-04-11T22:00:11.142Z,99026.72
2023-04-11T22:02:39.683Z,99022.81
2023-04-11T22:05:09.584Z,99028.25
2023-04-11T22:07:47.629Z,99028.88
2023-04-11T22:10:27.027Z,99030.31
2023-04-11T22:12:58.614Z,99032.28
2023-04-11T22:15:33.224Z,99035.38
2023-04-11T22:18:02.476Z,99022.75
2023-04-11T22:20:30.749Z,99026.72
2023-04-11T22:22:58.786Z,99012.19
2023-04-11T22:25:27.438Z,99014.38
2023-04-11T22:27:55.626Z,99017.34
2023-04-11T22:30:24.950Z,99020.56
2023-04-11T22:32:55.675Z,99022.75
2023-04-11T22:35:24.966Z,99019.03
2023-04-11T22:37:55.478Z,99023.66
2023-04-11T22:40:23.757Z,99029.59
2023-04-11T22:42:53.042Z,99016.53
2023-04-11T22:45:22.075Z,99005.44
2023-04-11T22:47:54.480Z,99011.03
2023-04-11T22:50:24.367Z,99001.56
2023-04-11T22:52:54.823Z,98997.69
2023-04-11T22:55:24.862Z,98988.41
2023-04-11T22:57:53.726Z,98983.69
2023-04-11T23:00:24.223Z,98975.84
2023-04-11T23:02:52.622Z,98986.28
2023-04-11T23:05:20.857Z,98988.81
2023-04-11T23:07:50.489Z,98994.69
2023-04-11T23:10:19.295Z,99007.94
2023-04-11T23:12:49.458Z,98995.41
2023-04-11T23:15:18.009Z,98977.38
2023-04-11T23:17:46.243Z,98987.03
2023-04-11T23:20:14.497Z,98991.97
2023-04-11T23:22:44.032Z,98985.03
2023-04-11T23:25:15.209Z,98983.88
2023-04-11T23:27:44.114Z,98986.66
2023-04-11T23:30:15.157Z,98986.38
2023-04-11T23:32:43.404Z,98989.00
2023-04-11T23:35:11.910Z,98987.03
2023-04-11T23:37:41.029Z,98979.19
2023-04-11T23:40:14.078Z,98989.19
2023-04-11T23:42:43.828Z,98977.25
2023-04-11T23:45:14.993Z,98970.81
2023-04-11T23:47:43.134Z,98971.88
2023-04-11T23:50:12.276Z,98966.28
2023-04-11T23:52:40.772Z,98965.00
2023-04-11T23:55:09.761Z,98965.00
2023-04-11T23:57:37.985Z,98981.06
